Murdock, Minnesota
Current Conditions -  °F | °C
As of 12:35 PM on Monday 20 Oct 2014 (Local Time) from KBDH Reporting Station
Clear Clear  
Wind Chill: 18°   Ceiling: Unl
Heat Index: 18°   Visibility: 10mi
Dew Point:   Wind: 15mph
Humidity: 40%   Direction: 330°NNW
Pressure: 30.05"   Gusts: 18mph
Location:  45.22°N, 95.39°W
Report Text: KBDH 201735Z AUTO 33013G16KT 10SM CLR 18/04 A3005 RMK AO2
Loading
Personal Weather Stations






























Interactive Weather Map
Tropical Storm Tracking
New forecast layout! Learn more

10-Day Weather Forecast

Advertisements
Track Severe Weather on mobile